sensor_id;sensor_type;location;lat;lon;timestamp;pressure;altitude;pressure_sealevel;temperature;humidity
76050;BME280;64967;50.234;19.224;2023-07-16T00:00:36;98101.47;;;22.28;75.67
76050;BME280;64967;50.234;19.224;2023-07-16T00:03:03;98115.44;;;22.36;75.65
76050;BME280;64967;50.234;19.224;2023-07-16T00:05:30;98148.06;;;22.53;75.69
76050;BME280;64967;50.234;19.224;2023-07-16T00:07:57;98099.03;;;22.21;75.73
76050;BME280;64967;50.234;19.224;2023-07-16T00:10:24;98112.50;;;22.28;75.61
76050;BME280;64967;50.234;19.224;2023-07-16T00:12:51;98122.06;;;22.35;75.24
76050;BME280;64967;50.234;19.224;2023-07-16T00:15:18;98139.38;;;22.41;76.03
76050;BME280;64967;50.234;19.224;2023-07-16T00:17:45;98137.22;;;22.38;75.34
76050;BME280;64967;50.234;19.224;2023-07-16T00:20:13;98116.63;;;22.25;76.24
76050;BME280;64967;50.234;19.224;2023-07-16T00:22:40;98128.44;;;22.31;76.81
76050;BME280;64967;50.234;19.224;2023-07-16T00:25:07;98129.56;;;22.24;76.14
76050;BME280;64967;50.234;19.224;2023-07-16T00:27:34;98119.41;;;22.20;76.75
76050;BME280;64967;50.234;19.224;2023-07-16T00:30:02;98084.03;;;22.03;76.87
76050;BME280;64967;50.234;19.224;2023-07-16T00:32:30;98123.00;;;22.20;76.34
76050;BME280;64967;50.234;19.224;2023-07-16T00:34:58;98126.63;;;22.16;76.87
76050;BME280;64967;50.234;19.224;2023-07-16T00:37:25;98112.91;;;22.11;76.65
76050;BME280;64967;50.234;19.224;2023-07-16T00:39:52;98122.25;;;22.15;76.95
76050;BME280;64967;50.234;19.224;2023-07-16T00:42:19;98102.81;;;22.01;76.96
76050;BME280;64967;50.234;19.224;2023-07-16T00:44:46;98108.84;;;21.98;76.26
76050;BME280;64967;50.234;19.224;2023-07-16T00:47:13;98122.59;;;22.03;76.66
76050;BME280;64967;50.234;19.224;2023-07-16T00:49:40;98128.09;;;22.03;76.73
76050;BME280;64967;50.234;19.224;2023-07-16T00:52:11;98121.53;;;21.99;76.55
76050;BME280;64967;50.234;19.224;2023-07-16T00:54:41;98121.00;;;21.92;76.67
76050;BME280;64967;50.234;19.224;2023-07-16T00:57:08;98130.38;;;21.91;77.55
76050;BME280;64967;50.234;19.224;2023-07-16T00:59:35;98109.50;;;21.80;79.29
76050;BME280;64967;50.234;19.224;2023-07-16T01:02:03;98117.28;;;21.73;81.28
76050;BME280;64967;50.234;19.224;2023-07-16T01:04:30;98108.03;;;21.54;83.07
76050;BME280;64967;50.234;19.224;2023-07-16T01:07:18;98118.00;;;21.40;86.80
76050;BME280;64967;50.234;19.224;2023-07-16T01:10:10;98113.75;;;20.98;86.71
76050;BME280;64967;50.234;19.224;2023-07-16T01:12:58;98120.13;;;20.63;89.85
76050;BME280;64967;50.234;19.224;2023-07-16T01:15:45;98092.16;;;20.36;89.86
76050;BME280;64967;50.234;19.224;2023-07-16T01:18:27;98111.69;;;20.34;90.57
76050;BME280;64967;50.234;19.224;2023-07-16T01:21:03;98085.00;;;20.10;91.94
76050;BME280;64967;50.234;19.224;2023-07-16T01:24:13;98115.78;;;20.12;92.40
76050;BME280;64967;50.234;19.224;2023-07-16T01:27:22;98098.19;;;20.02;93.20
76050;BME280;64967;50.234;19.224;2023-07-16T01:29:58;98102.84;;;19.92;94.26
76050;BME280;64967;50.234;19.224;2023-07-16T01:32:32;98060.03;;;19.66;93.43
76050;BME280;64967;50.234;19.224;2023-07-16T01:35:00;98080.34;;;19.80;93.29
76050;BME280;64967;50.234;19.224;2023-07-16T01:37:28;98092.41;;;19.84;94.71
76050;BME280;64967;50.234;19.224;2023-07-16T01:39:56;98093.50;;;19.73;95.17
76050;BME280;64967;50.234;19.224;2023-07-16T01:42:23;98088.25;;;19.56;95.78
76050;BME280;64967;50.234;19.224;2023-07-16T01:44:50;98070.59;;;19.22;97.01
76050;BME280;64967;50.234;19.224;2023-07-16T01:49:50;98083.75;;;19.25;97.74
76050;BME280;64967;50.234;19.224;2023-07-16T01:52:17;98089.50;;;19.23;97.14
76050;BME280;64967;50.234;19.224;2023-07-16T01:54:44;98087.31;;;19.20;96.32
76050;BME280;64967;50.234;19.224;2023-07-16T01:57:11;98089.00;;;19.26;97.02
76050;BME280;64967;50.234;19.224;2023-07-16T01:59:38;98102.72;;;19.31;96.57
76050;BME280;64967;50.234;19.224;2023-07-16T02:02:06;98092.25;;;19.28;97.13
76050;BME280;64967;50.234;19.224;2023-07-16T02:04:33;98096.13;;;19.27;96.50
76050;BME280;64967;50.234;19.224;2023-07-16T02:07:00;98089.25;;;19.25;96.64
76050;BME280;64967;50.234;19.224;2023-07-16T02:09:27;98087.31;;;19.20;96.72
76050;BME280;64967;50.234;19.224;2023-07-16T02:11:54;98063.13;;;19.02;96.32
76050;BME280;64967;50.234;19.224;2023-07-16T02:14:21;98101.56;;;19.17;96.69
76050;BME280;64967;50.234;19.224;2023-07-16T02:16:48;98084.25;;;19.06;96.36
76050;BME280;64967;50.234;19.224;2023-07-16T02:19:15;98093.84;;;19.04;98.00
76050;BME280;64967;50.234;19.224;2023-07-16T02:21:43;98083.94;;;18.98;96.91
76050;BME280;64967;50.234;19.224;2023-07-16T02:24:10;98075.16;;;18.91;96.86
76050;BME280;64967;50.234;19.224;2023-07-16T02:26:38;98069.66;;;18.86;96.80
76050;BME280;64967;50.234;19.224;2023-07-16T02:29:05;98067.97;;;18.80;97.06
76050;BME280;64967;50.234;19.224;2023-07-16T02:31:36;98090.44;;;18.87;97.25
76050;BME280;64967;50.234;19.224;2023-07-16T02:34:03;98063.78;;;18.62;98.28
76050;BME280;64967;50.234;19.224;2023-07-16T02:36:30;98078.88;;;18.69;98.18
76050;BME280;64967;50.234;19.224;2023-07-16T02:38:57;98030.44;;;18.33;97.90
76050;BME280;64967;50.234;19.224;2023-07-16T02:41:24;98077.72;;;18.60;98.62
76050;BME280;64967;50.234;19.224;2023-07-16T02:44:00;98088.97;;;18.59;99.16
76050;BME280;64967;50.234;19.224;2023-07-16T02:46:28;98083.66;;;18.52;99.57
76050;BME280;64967;50.234;19.224;2023-07-16T02:48:55;98092.97;;;18.51;99.39
76050;BME280;64967;50.234;19.224;2023-07-16T02:51:22;98084.13;;;18.39;99.04
76050;BME280;64967;50.234;19.224;2023-07-16T02:53:49;98067.63;;;18.29;99.76
76050;BME280;64967;50.234;19.224;2023-07-16T02:56:17;98091.25;;;18.40;100.00
76050;BME280;64967;50.234;19.224;2023-07-16T02:58:44;98099.97;;;18.37;100.00
76050;BME280;64967;50.234;19.224;2023-07-16T03:01:12;98104.09;;;18.35;98.94
76050;BME280;64967;50.234;19.224;2023-07-16T03:03:39;98092.28;;;18.29;99.65
76050;BME280;64967;50.234;19.224;2023-07-16T03:06:06;98078.25;;;18.20;99.32
76050;BME280;64967;50.234;19.224;2023-07-16T03:08:34;98085.97;;;18.23;98.56
76050;BME280;64967;50.234;19.224;2023-07-16T03:11:01;98093.59;;;18.21;98.49
76050;BME280;64967;50.234;19.224;2023-07-16T03:13:28;98097.91;;;18.12;100.00
76050;BME280;64967;50.234;19.224;2023-07-16T03:15:55;98053.53;;;17.73;100.00
76050;BME280;64967;50.234;19.224;2023-07-16T03:18:28;98103.47;;;17.91;100.00
76050;BME280;64967;50.234;19.224;2023-07-16T03:20:58;98083.69;;;17.78;100.00
76050;BME280;64967;50.234;19.224;2023-07-16T03:23:26;98071.56;;;17.69;100.00
76050;BME280;64967;50.234;19.224;2023-07-16T03:25:53;98085.78;;;17.71;100.00
76050;BME280;64967;50.234;19.224;2023-07-16T03:28:20;98088.50;;;17.71;100.00
76050;BME280;64967;50.234;19.224;2023-07-16T03:30:50;98097.34;;;17.78;100.00
76050;BME280;64967;50.234;19.224;2023-07-16T03:33:18;98100.63;;;17.80;100.00
76050;BME280;64967;50.234;19.224;2023-07-16T03:35:47;98109.97;;;17.84;100.00
76050;BME280;64967;50.234;19.224;2023-07-16T03:38:15;98104.53;;;17.90;100.00
76050;BME280;64967;50.234;19.224;2023-07-16T03:40:47;98098.28;;;17.94;100.00
76050;BME280;64967;50.234;19.224;2023-07-16T03:43:16;98105.41;;;17.95;100.00
76050;BME280;64967;50.234;19.224;2023-07-16T03:45:43;98106.75;;;17.93;100.00
76050;BME280;64967;50.234;19.224;2023-07-16T03:48:10;98109.13;;;17.84;100.00
76050;BME280;64967;50.234;19.224;2023-07-16T03:50:37;98097.84;;;17.75;100.00
76050;BME280;64967;50.234;19.224;2023-07-16T03:53:04;98092.66;;;17.74;100.00
76050;BME280;64967;50.234;19.224;2023-07-16T03:55:32;98125.34;;;17.91;100.00
76050;BME280;64967;50.234;19.224;2023-07-16T03:57:59;98118.22;;;17.90;100.00
76050;BME280;64967;50.234;19.224;2023-07-16T04:00:26;98110.59;;;17.92;100.00
76050;BME280;64967;50.234;19.224;2023-07-16T04:02:53;98110.59;;;17.92;100.00
76050;BME280;64967;50.234;19.224;2023-07-16T04:05:20;98112.22;;;17.93;100.00
76050;BME280;64967;50.234;19.224;2023-07-16T04:07:50;98109.03;;;18.01;100.00
76050;BME280;64967;50.234;19.224;2023-07-16T04:10:17;98123.88;;;18.10;100.00
76050;BME280;64967;50.234;19.224;2023-07-16T04:12:44;98133.28;;;18.19;100.00
76050;BME280;64967;50.234;19.224;2023-07-16T04:15:11;98136.00;;;18.24;100.00
76050;BME280;64967;50.234;19.224;2023-07-16T04:17:38;98105.81;;;18.09;100.00
76050;BME280;64967;50.234;19.224;2023-07-16T04:20:06;98135.22;;;18.28;100.00
76050;BME280;64967;50.234;19.224;2023-07-16T04:22:34;98151.00;;;18.48;100.00
76050;BME280;64967;50.234;19.224;2023-07-16T04:25:02;98137.56;;;18.47;100.00
76050;BME280;64967;50.234;19.224;2023-07-16T04:27:30;98104.63;;;18.32;100.00
76050;BME280;64967;50.234;19.224;2023-07-16T04:29:58;98152.84;;;18.75;100.00
76050;BME280;64967;50.234;19.224;2023-07-16T04:32:25;98139.97;;;18.75;100.00
76050;BME280;64967;50.234;19.224;2023-07-16T04:34:52;98148.50;;;18.79;100.00
76050;BME280;64967;50.234;19.224;2023-07-16T04:37:19;98166.69;;;18.95;100.00
76050;BME280;64967;50.234;19.224;2023-07-16T04:39:46;98152.97;;;18.95;100.00
76050;BME280;64967;50.234;19.224;2023-07-16T04:42:13;98177.47;;;19.16;100.00
76050;BME280;64967;50.234;19.224;2023-07-16T04:44:40;98168.50;;;19.36;100.00
76050;BME280;64967;50.234;19.224;2023-07-16T04:47:07;98149.97;;;19.48;100.00
76050;BME280;64967;50.234;19.224;2023-07-16T04:49:34;98145.34;;;19.69;100.00
76050;BME280;64967;50.234;19.224;2023-07-16T04:52:05;98178.09;;;20.11;98.51
76050;BME280;64967;50.234;19.224;2023-07-16T04:54:36;98172.63;;;20.57;96.39
76050;BME280;64967;50.234;19.224;2023-07-16T04:57:07;98155.59;;;20.65;96.00
76050;BME280;64967;50.234;19.224;2023-07-16T04:59:35;98160.47;;;20.98;95.48
76050;BME280;64967;50.234;19.224;2023-07-16T05:02:05;98134.03;;;21.12;94.85
76050;BME280;64967;50.234;19.224;2023-07-16T05:04:33;98155.00;;;21.67;92.88
76050;BME280;64967;50.234;19.224;2023-07-16T05:07:03;98174.56;;;22.15;92.08
76050;BME280;64967;50.234;19.224;2023-07-16T05:09:30;98176.13;;;22.60;90.62
76050;BME280;64967;50.234;19.224;2023-07-16T05:11:58;98169.13;;;23.01;89.53
76050;BME280;64967;50.234;19.224;2023-07-16T05:14:26;98164.78;;;23.43;85.38
76050;BME280;64967;50.234;19.224;2023-07-16T05:16:55;98164.44;;;23.73;84.00
76050;BME280;64967;50.234;19.224;2023-07-16T05:19:26;98170.97;;;24.20;86.39
76050;BME280;64967;50.234;19.224;2023-07-16T05:21:53;98189.78;;;24.69;82.07
76050;BME280;64967;50.234;19.224;2023-07-16T05:24:20;98166.25;;;24.90;81.72
76050;BME280;64967;50.234;19.224;2023-07-16T05:26:48;98191.16;;;25.31;80.34
76050;BME280;64967;50.234;19.224;2023-07-16T05:29:16;98187.31;;;25.59;75.05
76050;BME280;64967;50.234;19.224;2023-07-16T05:31:43;98187.66;;;25.94;73.72
76050;BME280;64967;50.234;19.224;2023-07-16T05:34:13;98183.44;;;26.24;75.83
76050;BME280;64967;50.234;19.224;2023-07-16T05:36:41;98163.34;;;26.40;75.32
76050;BME280;64967;50.234;19.224;2023-07-16T05:39:08;98180.59;;;26.82;72.40
76050;BME280;64967;50.234;19.224;2023-07-16T05:41:35;98197.13;;;27.09;76.05
76050;BME280;64967;50.234;19.224;2023-07-16T05:44:02;98185.03;;;27.05;72.97
76050;BME280;64967;50.234;19.224;2023-07-16T05:46:29;98185.75;;;27.19;67.96
76050;BME280;64967;50.234;19.224;2023-07-16T05:48:57;98201.06;;;27.47;71.36
76050;BME280;64967;50.234;19.224;2023-07-16T05:51:26;98210.34;;;27.74;69.89
76050;BME280;64967;50.234;19.224;2023-07-16T05:53:53;98194.19;;;27.93;66.99
76050;BME280;64967;50.234;19.224;2023-07-16T05:56:20;98201.25;;;27.99;63.18
76050;BME280;64967;50.234;19.224;2023-07-16T05:58:47;98201.31;;;28.25;68.68
76050;BME280;64967;50.234;19.224;2023-07-16T06:01:14;98209.81;;;28.37;60.81
76050;BME280;64967;50.234;19.224;2023-07-16T06:03:41;98202.13;;;28.43;59.65
76050;BME280;64967;50.234;19.224;2023-07-16T06:06:09;98195.75;;;28.59;63.50
76050;BME280;64967;50.234;19.224;2023-07-16T06:08:36;98222.75;;;28.93;61.88
76050;BME280;64967;50.234;19.224;2023-07-16T06:11:03;98204.91;;;29.03;63.96
76050;BME280;64967;50.234;19.224;2023-07-16T06:13:31;98208.13;;;29.22;57.54
76050;BME280;64967;50.234;19.224;2023-07-16T06:15:58;98213.34;;;29.23;57.59
76050;BME280;64967;50.234;19.224;2023-07-16T06:18:25;98214.22;;;28.98;58.16
76050;BME280;64967;50.234;19.224;2023-07-16T06:20:52;98228.59;;;29.26;61.16
76050;BME280;64967;50.234;19.224;2023-07-16T06:23:21;98234.59;;;29.45;55.56
76050;BME280;64967;50.234;19.224;2023-07-16T06:25:54;98252.31;;;29.49;54.10
76050;BME280;64967;50.234;19.224;2023-07-16T06:28:22;98247.00;;;29.65;55.38
76050;BME280;64967;50.234;19.224;2023-07-16T06:30:50;98269.19;;;29.91;53.71
76050;BME280;64967;50.234;19.224;2023-07-16T06:33:19;98251.47;;;29.87;52.17
76050;BME280;64967;50.234;19.224;2023-07-16T06:35:47;98264.34;;;30.08;52.34
76050;BME280;64967;50.234;19.224;2023-07-16T06:38:15;98271.38;;;30.14;51.39
76050;BME280;64967;50.234;19.224;2023-07-16T06:40:49;98254.38;;;30.07;51.70
76050;BME280;64967;50.234;19.224;2023-07-16T06:43:16;98279.41;;;30.16;54.64
76050;BME280;64967;50.234;19.224;2023-07-16T06:45:44;98296.25;;;29.90;53.14
76050;BME280;64967;50.234;19.224;2023-07-16T06:48:11;98311.44;;;30.10;54.08
76050;BME280;64967;50.234;19.224;2023-07-16T06:50:38;98307.84;;;29.46;52.93
76050;BME280;64967;50.234;19.224;2023-07-16T06:53:05;98305.13;;;29.03;57.10
76050;BME280;64967;50.234;19.224;2023-07-16T06:55:32;98290.34;;;29.28;56.43
76050;BME280;64967;50.234;19.224;2023-07-16T06:58:00;98318.31;;;29.66;55.37
76050;BME280;64967;50.234;19.224;2023-07-16T07:00:27;98308.69;;;29.29;56.33
76050;BME280;64967;50.234;19.224;2023-07-16T07:02:55;98314.59;;;29.45;55.09
76050;BME280;64967;50.234;19.224;2023-07-16T07:05:22;98304.97;;;29.80;57.06
76050;BME280;64967;50.234;19.224;2023-07-16T07:07:49;98304.56;;;29.61;54.56
76050;BME280;64967;50.234;19.224;2023-07-16T07:10:16;98316.31;;;29.75;52.69
76050;BME280;64967;50.234;19.224;2023-07-16T07:12:43;98320.81;;;29.24;55.70
76050;BME280;64967;50.234;19.224;2023-07-16T07:15:10;98309.81;;;29.45;53.85
76050;BME280;64967;50.234;19.224;2023-07-16T07:17:39;98332.75;;;29.51;55.31
76050;BME280;64967;50.234;19.224;2023-07-16T07:20:06;98331.13;;;29.50;53.76
76050;BME280;64967;50.234;19.224;2023-07-16T07:22:34;98307.50;;;29.56;51.41
76050;BME280;64967;50.234;19.224;2023-07-16T07:25:01;98305.44;;;29.36;52.79
76050;BME280;64967;50.234;19.224;2023-07-16T07:27:28;98327.38;;;29.46;51.52
76050;BME280;64967;50.234;19.224;2023-07-16T07:29:55;98331.50;;;29.86;51.70
76050;BME280;64967;50.234;19.224;2023-07-16T07:32:25;98322.59;;;30.10;52.59
76050;BME280;64967;50.234;19.224;2023-07-16T07:34:55;98320.06;;;30.26;50.70
76050;BME280;64967;50.234;19.224;2023-07-16T07:37:22;98324.94;;;30.58;49.63
76050;BME280;64967;50.234;19.224;2023-07-16T07:39:53;98332.25;;;30.50;48.77
76050;BME280;64967;50.234;19.224;2023-07-16T07:42:20;98333.56;;;30.53;48.71
76050;BME280;64967;50.234;19.224;2023-07-16T07:44:51;98334.69;;;30.14;48.70
76050;BME280;64967;50.234;19.224;2023-07-16T07:47:18;98308.41;;;29.94;49.31
76050;BME280;64967;50.234;19.224;2023-07-16T07:49:45;98327.84;;;30.11;50.32
76050;BME280;64967;50.234;19.224;2023-07-16T07:52:12;98314.19;;;30.19;49.08
76050;BME280;64967;50.234;19.224;2023-07-16T07:54:40;98257.28;;;30.11;50.25
76050;BME280;64967;50.234;19.224;2023-07-16T07:57:07;98311.69;;;30.55;48.33
76050;BME280;64967;50.234;19.224;2023-07-16T07:59:34;98323.41;;;30.69;48.09
76050;BME280;64967;50.234;19.224;2023-07-16T08:02:01;98326.00;;;30.74;49.08
76050;BME280;64967;50.234;19.224;2023-07-16T08:04:33;98295.50;;;30.40;49.23
76050;BME280;64967;50.234;19.224;2023-07-16T08:07:03;98295.72;;;30.35;49.21
76050;BME280;64967;50.234;19.224;2023-07-16T08:09:30;98292.72;;;30.10;48.66
76050;BME280;64967;50.234;19.224;2023-07-16T08:11:57;98305.66;;;30.15;49.28
76050;BME280;64967;50.234;19.224;2023-07-16T08:14:24;98284.41;;;30.02;49.65
76050;BME280;64967;50.234;19.224;2023-07-16T08:20:35;98331.41;;;30.50;51.18
76050;BME280;64967;50.234;19.224;2023-07-16T08:23:02;98319.94;;;30.43;49.82
76050;BME280;64967;50.234;19.224;2023-07-16T08:25:30;98328.63;;;30.21;51.50
76050;BME280;64967;50.234;19.224;2023-07-16T08:27:57;98335.03;;;29.66;52.78
76050;BME280;64967;50.234;19.224;2023-07-16T08:30:24;98342.09;;;29.55;53.53
76050;BME280;64967;50.234;19.224;2023-07-16T08:32:51;98326.06;;;29.00;55.32
76050;BME280;64967;50.234;19.224;2023-07-16T08:35:18;98333.94;;;29.15;56.99
76050;BME280;64967;50.234;19.224;2023-07-16T08:37:46;98321.00;;;29.19;56.55
76050;BME280;64967;50.234;19.224;2023-07-16T08:40:14;98318.38;;;29.32;56.43
76050;BME280;64967;50.234;19.224;2023-07-16T08:42:44;98295.09;;;29.45;55.81
76050;BME280;64967;50.234;19.224;2023-07-16T08:45:14;98314.63;;;29.91;56.45
76050;BME280;64967;50.234;19.224;2023-07-16T08:47:42;98273.00;;;29.40;55.37
76050;BME280;64967;50.234;19.224;2023-07-16T08:50:09;98290.38;;;29.83;55.20
76050;BME280;64967;50.234;19.224;2023-07-16T08:52:37;98345.78;;;29.93;54.32
76050;BME280;64967;50.234;19.224;2023-07-16T08:55:06;98329.94;;;30.14;54.08
76050;BME280;64967;50.234;19.224;2023-07-16T08:57:34;98334.09;;;30.38;53.79
76050;BME280;64967;50.234;19.224;2023-07-16T09:00:02;98332.88;;;30.56;53.50
76050;BME280;64967;50.234;19.224;2023-07-16T09:02:30;98345.63;;;30.66;55.12
76050;BME280;64967;50.234;19.224;2023-07-16T09:04:58;98311.22;;;30.53;55.05
76050;BME280;64967;50.234;19.224;2023-07-16T09:07:27;98326.88;;;30.37;55.03
76050;BME280;64967;50.234;19.224;2023-07-16T09:09:58;98316.66;;;30.49;55.51
76050;BME280;64967;50.234;19.224;2023-07-16T09:12:25;98327.06;;;30.32;55.16
76050;BME280;64967;50.234;19.224;2023-07-16T09:14:53;98326.44;;;30.26;56.51
76050;BME280;64967;50.234;19.224;2023-07-16T09:17:24;98325.72;;;30.38;55.17
76050;BME280;64967;50.234;19.224;2023-07-16T09:19:52;98310.25;;;30.49;57.71
76050;BME280;64967;50.234;19.224;2023-07-16T09:22:20;98317.56;;;30.83;55.13
76050;BME280;64967;50.234;19.224;2023-07-16T09:24:48;98307.59;;;30.94;56.19
76050;BME280;64967;50.234;19.224;2023-07-16T09:27:15;98313.09;;;31.11;54.43
76050;BME280;64967;50.234;19.224;2023-07-16T09:29:42;98311.97;;;31.24;54.21
76050;BME280;64967;50.234;19.224;2023-07-16T09:32:10;98317.50;;;30.91;55.78
76050;BME280;64967;50.234;19.224;2023-07-16T09:34:37;98317.69;;;30.86;57.34
76050;BME280;64967;50.234;19.224;2023-07-16T09:37:05;98307.63;;;30.52;55.23
76050;BME280;64967;50.234;19.224;2023-07-16T09:39:33;98296.03;;;29.57;57.92
76050;BME280;64967;50.234;19.224;2023-07-16T09:42:01;98298.91;;;29.78;59.61
76050;BME280;64967;50.234;19.224;2023-07-16T09:44:31;98316.56;;;29.99;57.30
76050;BME280;64967;50.234;19.224;2023-07-16T09:46:58;98289.69;;;29.95;59.16
76050;BME280;64967;50.234;19.224;2023-07-16T09:49:28;98291.00;;;29.97;57.44
76050;BME280;64967;50.234;19.224;2023-07-16T09:51:56;98323.84;;;30.21;56.94
76050;BME280;64967;50.234;19.224;2023-07-16T09:54:25;98327.56;;;30.34;57.13
76050;BME280;64967;50.234;19.224;2023-07-16T09:56:57;98318.53;;;30.66;55.96
76050;BME280;64967;50.234;19.224;2023-07-16T09:59:28;98319.59;;;30.94;54.50
76050;BME280;64967;50.234;19.224;2023-07-16T10:01:56;98323.25;;;31.16;55.39
76050;BME280;64967;50.234;19.224;2023-07-16T10:04:24;98319.34;;;31.29;53.71
76050;BME280;64967;50.234;19.224;2023-07-16T10:06:58;98323.53;;;31.35;55.44
76050;BME280;64967;50.234;19.224;2023-07-16T10:09:36;98295.16;;;31.45;53.81
76050;BME280;64967;50.234;19.224;2023-07-16T10:12:16;98319.53;;;31.57;54.22
76050;BME280;64967;50.234;19.224;2023-07-16T10:14:49;98308.19;;;31.41;55.72
76050;BME280;64967;50.234;19.224;2023-07-16T10:17:21;98310.28;;;31.44;55.82
76050;BME280;64967;50.234;19.224;2023-07-16T10:19:59;98289.03;;;31.19;55.28
76050;BME280;64967;50.234;19.224;2023-07-16T10:25:00;98309.56;;;31.68;53.78
76050;BME280;64967;50.234;19.224;2023-07-16T10:27:36;98291.75;;;31.84;53.18
76050;BME280;64967;50.234;19.224;2023-07-16T10:30:04;98315.13;;;32.13;53.41
76050;BME280;64967;50.234;19.224;2023-07-16T10:32:35;98300.41;;;32.04;52.72
76050;BME280;64967;50.234;19.224;2023-07-16T10:35:06;98315.13;;;32.25;52.79
76050;BME280;64967;50.234;19.224;2023-07-16T10:37:34;98256.59;;;31.96;52.58
76050;BME280;64967;50.234;19.224;2023-07-16T10:40:02;98317.34;;;32.31;51.63
76050;BME280;64967;50.234;19.224;2023-07-16T10:42:32;98323.50;;;32.01;53.18
76050;BME280;64967;50.234;19.224;2023-07-16T10:45:04;98327.06;;;31.89;51.91
76050;BME280;64967;50.234;19.224;2023-07-16T10:47:39;98328.81;;;31.69;53.34
76050;BME280;64967;50.234;19.224;2023-07-16T10:50:08;98338.66;;;30.72;55.96
76050;BME280;64967;50.234;19.224;2023-07-16T10:52:36;98317.13;;;30.72;56.56
76050;BME280;64967;50.234;19.224;2023-07-16T10:55:07;98335.34;;;30.49;56.90
76050;BME280;64967;50.234;19.224;2023-07-16T10:57:34;98336.81;;;30.26;56.82
76050;BME280;64967;50.234;19.224;2023-07-16T11:00:02;98307.69;;;30.06;58.83
76050;BME280;64967;50.234;19.224;2023-07-16T11:02:30;98330.63;;;30.11;56.56
76050;BME280;64967;50.234;19.224;2023-07-16T11:04:58;98316.69;;;30.11;57.00
76050;BME280;64967;50.234;19.224;2023-07-16T11:07:27;98320.44;;;30.16;55.34
76050;BME280;64967;50.234;19.224;2023-07-16T11:09:55;98318.78;;;30.14;54.27
76050;BME280;64967;50.234;19.224;2023-07-16T11:12:23;98309.97;;;30.12;54.98
76050;BME280;64967;50.234;19.224;2023-07-16T11:14:53;98324.13;;;30.28;55.60
76050;BME280;64967;50.234;19.224;2023-07-16T11:17:22;98304.59;;;30.28;56.36
76050;BME280;64967;50.234;19.224;2023-07-16T11:19:52;98323.63;;;30.64;54.93
76050;BME280;64967;50.234;19.224;2023-07-16T11:22:19;98282.69;;;30.47;54.62
76050;BME280;64967;50.234;19.224;2023-07-16T11:24:51;98311.72;;;30.96;54.32
76050;BME280;64967;50.234;19.224;2023-07-16T11:27:20;98295.75;;;30.76;53.24
76050;BME280;64967;50.234;19.224;2023-07-16T11:29:52;98322.06;;;30.75;52.11
76050;BME280;64967;50.234;19.224;2023-07-16T11:32:37;98312.38;;;30.73;51.54
76050;BME280;64967;50.234;19.224;2023-07-16T11:35:06;98311.00;;;30.58;53.53
76050;BME280;64967;50.234;19.224;2023-07-16T11:37:35;98309.81;;;30.88;52.52
76050;BME280;64967;50.234;19.224;2023-07-16T11:40:05;98288.53;;;30.96;51.71
76050;BME280;64967;50.234;19.224;2023-07-16T11:42:37;98313.34;;;30.97;53.09
76050;BME280;64967;50.234;19.224;2023-07-16T11:45:14;98297.19;;;31.24;52.33
76050;BME280;64967;50.234;19.224;2023-07-16T11:47:41;98306.81;;;31.47;49.89
76050;BME280;64967;50.234;19.224;2023-07-16T11:50:11;98307.47;;;31.32;50.88
76050;BME280;64967;50.234;19.224;2023-07-16T11:52:38;98295.59;;;31.35;50.72
76050;BME280;64967;50.234;19.224;2023-07-16T11:55:06;98294.75;;;31.34;51.64
76050;BME280;64967;50.234;19.224;2023-07-16T11:57:34;98287.91;;;31.32;50.46
76050;BME280;64967;50.234;19.224;2023-07-16T12:00:03;98282.94;;;31.17;51.38
76050;BME280;64967;50.234;19.224;2023-07-16T12:02:30;98314.16;;;31.19;51.53
76050;BME280;64967;50.234;19.224;2023-07-16T12:04:57;98317.69;;;30.86;52.24
76050;BME280;64967;50.234;19.224;2023-07-16T12:07:37;98176.94;;;29.75;52.04
76050;BME280;64967;50.234;19.224;2023-07-16T12:10:06;98287.13;;;30.40;53.40
76050;BME280;64967;50.234;19.224;2023-07-16T12:12:34;98302.44;;;30.63;54.04
76050;BME280;64967;50.234;19.224;2023-07-16T12:15:06;98297.59;;;30.72;56.00
76050;BME280;64967;50.234;19.224;2023-07-16T12:17:34;98303.28;;;30.84;51.38
76050;BME280;64967;50.234;19.224;2023-07-16T12:20:02;98277.94;;;30.69;53.74
76050;BME280;64967;50.234;19.224;2023-07-16T12:22:31;98301.50;;;30.80;51.85
76050;BME280;64967;50.234;19.224;2023-07-16T12:24:58;98302.78;;;31.03;49.33
76050;BME280;64967;50.234;19.224;2023-07-16T12:27:26;98280.34;;;31.12;48.93
76050;BME280;64967;50.234;19.224;2023-07-16T12:29:53;98283.59;;;31.34;49.47
76050;BME280;64967;50.234;19.224;2023-07-16T12:32:20;98289.69;;;31.49;51.88
76050;BME280;64967;50.234;19.224;2023-07-16T12:34:47;98291.28;;;31.70;49.13
76050;BME280;64967;50.234;19.224;2023-07-16T12:37:14;98280.16;;;31.50;48.50
76050;BME280;64967;50.234;19.224;2023-07-16T12:39:41;98279.00;;;31.51;49.50
76050;BME280;64967;50.234;19.224;2023-07-16T12:42:08;98269.91;;;31.21;51.24
76050;BME280;64967;50.234;19.224;2023-07-16T12:44:35;98284.28;;;31.31;51.22
76050;BME280;64967;50.234;19.224;2023-07-16T12:47:02;98265.75;;;31.27;50.95
76050;BME280;64967;50.234;19.224;2023-07-16T12:49:30;98263.00;;;31.39;48.37
76050;BME280;64967;50.234;19.224;2023-07-16T12:51:58;98249.94;;;31.31;48.69
76050;BME280;64967;50.234;19.224;2023-07-16T12:54:25;98240.16;;;31.25;49.96
76050;BME280;64967;50.234;19.224;2023-07-16T12:56:52;98254.78;;;31.55;51.76
76050;BME280;64967;50.234;19.224;2023-07-16T12:59:19;98260.19;;;31.96;47.75
76050;BME280;64967;50.234;19.224;2023-07-16T13:01:46;98259.38;;;31.96;46.72
76050;BME280;64967;50.234;19.224;2023-07-16T13:04:13;98257.78;;;32.19;48.61